| time (UTC) | temp F | wind direction | speed knots | gust knots | rain 1hr in | rain 24hr in | rain mn in | humidity % | barometer mb |
| 20260503220738 | 67 | 213 | 13.9 | 23.5 | 0.00 | 0.00 | 0.00 | 39 | 1003.9 |
| 20260503220248 | 67 | 241 | 13.0 | 22.6 | 0.00 | 0.00 | 0.00 | 39 | 1003.9 |
| 20260503220239 | 67 | 205 | 13.9 | 23.5 | 0.00 | 0.00 | 0.00 | 39 | 1004.0 |
| 20260503215238 | 67 | 219 | 13.9 | 23.5 | 0.00 | 0.00 | 0.00 | 39 | 1004.1 |
| 20260503214738 | 67 | 181 | 13.9 | 23.5 | 0.00 | 0.00 | 0.00 | 39 | 1004.1 |
| 20260503214731 | 67 | 194 | 14.8 | 23.5 | 0.00 | 0.00 | 0.00 | 39 | 1004.1 |
| 20260503214334 | 67 | 227 | 13.9 | 23.5 | 0.00 | 0.00 | 0.00 | 39 | 1004.0 |
| 20260503213722 | 67 | 231 | 15.6 | 26.1 | 0.00 | 0.00 | 0.00 | 39 | 1004.3 |
| 20260503212715 | 67 | 185 | 11.3 | 26.1 | 0.00 | 0.00 | 0.00 | 39 | 1004.4 |
| 20260503212710 | 67 | 176 | 11.3 | 23.5 | 0.00 | 0.00 | 0.00 | 39 | 1004.2 |
| 20260503211702 | 66 | 211 | 14.8 | 24.3 | 0.00 | 0.00 | 0.00 | 40 | 1004.3 |
| 20260503211656 | 66 | 206 | 14.8 | 24.3 | 0.00 | 0.00 | 0.00 | 40 | 1003.9 |
| 20260503210651 | 66 | 229 | 13.9 | 25.2 | 0.00 | 0.00 | 0.00 | 42 | 1004.3 |
| 20260503210145 | 66 | 217 | 11.3 | 24.3 | 0.00 | 0.00 | 0.00 | 43 | 1004.2 |
| 20260503210135 | 65 | 216 | 13.0 | 31.3 | 0.00 | 0.00 | 0.00 | 44 | 1004.6 |
| 20260503205739 | 66 | 160 | 10.4 | 16.5 | 0.00 | 0.00 | 0.00 | 44 | 1004.3 |
| 20260503204627 | 65 | 194 | 13.0 | 31.3 | 0.00 | 0.00 | 0.00 | 44 | 1004.8 |
| 20260503204121 | 65 | 211 | 14.8 | 31.3 | 0.00 | 0.00 | 0.00 | 44 | 1004.4 |
| 20260503203615 | 65 | 260 | 15.6 | 31.3 | 0.00 | 0.00 | 0.00 | 44 | 1004.8 |
| 20260503203610 | 65 | 173 | 13.9 | 28.7 | 0.00 | 0.00 | 0.00 | 44 | 1004.9 |
| 20260503202602 | 64 | 194 | 13.9 | 28.7 | 0.00 | 0.00 | 0.00 | 44 | 1005.0 |
| 20260503202056 | 64 | 216 | 14.8 | 26.9 | 0.00 | 0.00 | 0.00 | 45 | 1005.1 |
| 20260503201550 | 64 | 203 | 17.4 | 32.2 | 0.00 | 0.00 | 0.00 | 45 | 1005.3 |
| 20260503201545 | 63 | 213 | 18.2 | 32.2 | 0.00 | 0.00 | 0.00 | 44 | 1005.5 |
| 20260503200539 | 63 | 215 | 18.2 | 32.2 | 0.00 | 0.00 | 0.00 | 44 | 1005.3 |
| 20260503200033 | 64 | 223 | 16.5 | 32.2 | 0.00 | 0.00 | 0.00 | 43 | 1005.1 |
| 20260503195527 | 64 | 193 | 13.9 | 24.3 | 0.00 | 0.00 | 0.00 | 41 | 1005.5 |
| 20260503195021 | 65 | 224 | 16.5 | 34.8 | 0.00 | 0.00 | 0.00 | 41 | 1005.5 |
| 20260503194515 | 65 | 212 | 17.4 | 34.8 | 0.00 | 0.00 | 0.00 | 40 | 1005.7 |
| 20260503194009 | 65 | 211 | 15.6 | 28.7 | 0.00 | 0.00 | 0.00 | 40 | 1005.6 |
| 20260503193503 | 65 | 225 | 16.5 | 30.4 | 0.00 | 0.00 | 0.00 | 40 | 1005.7 |
| 20260503192957 | 65 | 214 | 16.5 | 30.4 | 0.00 | 0.00 | 0.00 | 39 | 1006.1 |
| 20260503192451 | 65 | 194 | 15.6 | 27.8 | 0.00 | 0.00 | 0.00 | 39 | 1005.8 |
| 20260503191944 | 65 | 148 | 15.6 | 27.8 | 0.00 | 0.00 | 0.00 | 39 | 1005.6 |
| 20260503191437 | 65 | 225 | 15.6 | 28.7 | 0.00 | 0.00 | 0.00 | 39 | 1005.9 |
| 20260503190932 | 65 | 227 | 16.5 | 28.7 | 0.00 | 0.00 | 0.00 | 39 | 1006.0 |
| 20260503190427 | 64 | 196 | 17.4 | 28.7 | 0.00 | 0.00 | 0.00 | 39 | 1006.1 |
| 20260503185921 | 64 | 217 | 17.4 | 28.7 | 0.00 | 0.00 | 0.00 | 39 | 1006.1 |
| 20260503185415 | 64 | 175 | 15.6 | 32.2 | 0.00 | 0.00 | 0.00 | 39 | 1006.0 |
| 20260503184909 | 64 | 223 | 15.6 | 32.2 | 0.00 | 0.00 | 0.00 | 40 | 1006.1 |
| 20260503184403 | 64 | 207 | 14.8 | 30.4 | 0.00 | 0.00 | 0.00 | 41 | 1006.1 |
| 20260503183857 | 64 | 234 | 12.2 | 23.5 | 0.00 | 0.00 | 0.00 | 41 | 1006.3 |
| 20260503183351 | 63 | 184 | 13.9 | 25.2 | 0.00 | 0.00 | 0.00 | 44 | 1006.4 |
| 20260503182845 | 63 | 209 | 13.0 | 25.2 | 0.00 | 0.00 | 0.00 | 44 | 1006.3 |
| 20260503182339 | 63 | 163 | 12.2 | 21.7 | 0.00 | 0.00 | 0.00 | 45 | 1006.6 |
| 20260503181833 | 62 | 198 | 13.9 | 27.8 | 0.00 | 0.00 | 0.00 | 46 | 1006.8 |
| 20260503181327 | 62 | 229 | 13.0 | 24.3 | 0.00 | 0.00 | 0.00 | 45 | 1006.7 |
| 20260503180819 | 62 | 192 | 13.9 | 24.3 | 0.00 | 0.00 | 0.00 | 46 | 1007.0 |
| 20260503180314 | 61 | 188 | 13.0 | 24.3 | 0.00 | 0.00 | 0.00 | 46 | 1006.8 |
| 20260503175809 | 61 | 166 | 12.2 | 25.2 | 0.00 | 0.00 | 0.00 | 46 | 1007.0 |
| 20260503175304 | 61 | 173 | 12.2 | 25.2 | 0.00 | 0.00 | 0.00 | 48 | 1007.2 |
| 20260503174756 | 60 | 239 | 12.2 | 23.5 | 0.00 | 0.00 | 0.00 | 47 | 1007.1 |
| 20260503174751 | 60 | 230 | 11.3 | 23.5 | 0.00 | 0.00 | 0.00 | 48 | 1007.3 |
| 20260503173744 | 60 | 196 | 12.2 | 26.1 | 0.00 | 0.00 | 0.00 | 48 | 1007.4 |
| 20260503173739 | 59 | 245 | 13.0 | 26.1 | 0.00 | 0.00 | 0.00 | 50 | 1007.6 |
| 20260503172733 | 59 | 131 | 14.8 | 28.7 | 0.00 | 0.00 | 0.00 | 50 | 1007.7 |
| 20260503172226 | 58 | 199 | 14.8 | 28.7 | 0.00 | 0.00 | 0.00 | 50 | 1007.7 |
| 20260503171720 | 58 | 186 | 13.9 | 26.1 | 0.00 | 0.00 | 0.00 | 50 | 1007.6 |
| 20260503171214 | 57 | 257 | 15.6 | 26.1 | 0.00 | 0.00 | 0.00 | 51 | 1008.0 |
| 20260503170709 | 57 | 238 | 13.0 | 26.1 | 0.00 | 0.00 | 0.00 | 51 | 1008.2 |
| 20260503170203 | 58 | 179 | 11.3 | 23.5 | 0.00 | 0.00 | 0.00 | 52 | 1008.2 |
| 20260503150444 | 58 | 196 | 17.4 | 28.7 | 0.00 | 0.00 | 0.00 | 47 | 1009.2 |
| 20260503131319 | 53 | 227 | 12.2 | 20.9 | 0.00 | 0.00 | 0.00 | 51 | 1010.4 |
| 20260503130819 | 52 | 186 | 13.0 | 20.9 | 0.00 | 0.00 | 0.00 | 50 | 1010.4 |
| 20260503130320 | 52 | 279 | 12.2 | 19.1 | 0.00 | 0.00 | 0.00 | 50 | 1010.4 |
| 20260503110813 | 50 | 225 | 9.6 | 13.0 | 0.00 | 0.00 | 0.00 | 48 | 1010.4 |
| 20260503110312 | 49 | 211 | 8.7 | 13.9 | 0.00 | 0.00 | 0.00 | 48 | 1010.4 |
| 20260503100253 | 48 | 226 | 7.8 | 13.0 | 0.00 | 0.00 | 0.00 | 49 | 1010.7 |
| 20260503090141 | 48 | 230 | 7.0 | 10.4 | 0.00 | 0.00 | 0.00 | 49 | 1011.0 |
| 20260503081549 | 48 | 217 | 7.0 | 11.3 | 0.00 | 0.00 | 0.00 | 49 | 1011.4 |
| 20260503081042 | 48 | 173 | 7.8 | 13.9 | 0.00 | 0.00 | 0.00 | 48 | 1011.5 |
| 20260503080536 | 48 | 172 | 7.8 | 13.9 | 0.00 | 0.00 | 0.00 | 48 | 1011.5 |
| 20260503071941 | 47 | 201 | 5.2 | 10.4 | 0.00 | 0.00 | 0.00 | 49 | 1011.8 |
| 20260503071436 | 47 | 224 | 6.1 | 10.4 | 0.00 | 0.00 | 0.00 | 49 | 1011.9 |
| 20260503070930 | 47 | 184 | 6.1 | 11.3 | 0.00 | 0.00 | 0.00 | 50 | 1011.9 |
| 20260503070424 | 47 | 199 | 6.1 | 11.3 | 0.00 | 0.00 | 0.00 | 50 | 1011.9 |
| 20260503060312 | 47 | 201 | 5.2 | 8.7 | 0.00 | 0.00 | 0.00 | 50 | 1012.4 |
| 20260503054752 | 48 | 192 | 6.1 | 11.3 | 0.00 | 0.00 | 0.00 | 49 | 1012.4 |
| 20260503054248 | 48 | 205 | 6.1 | 11.3 | 0.00 | 0.00 | 0.00 | 49 | 1012.6 |
| 20260503053742 | 48 | 184 | 6.1 | 11.3 | 0.00 | 0.00 | 0.00 | 49 | 1012.6 |
| 20260503053234 | 48 | 203 | 6.1 | 11.3 | 0.00 | 0.00 | 0.00 | 49 | 1012.7 |
| 20260503052729 | 48 | 205 | 6.1 | 11.3 | 0.00 | 0.00 | 0.00 | 49 | 1012.7 |
| 20260503052224 | 48 | 231 | 6.1 | 11.3 | 0.00 | 0.00 | 0.00 | 49 | 1012.7 |
| 20260503051718 | 48 | 219 | 6.1 | 9.6 | 0.00 | 0.00 | 0.00 | 49 | 1012.7 |
| 20260503051212 | 48 | 223 | 6.1 | 10.4 | 0.00 | 0.00 | 0.00 | 49 | 1012.7 |
| 20260503050706 | 48 | 196 | 7.0 | 10.4 | 0.00 | 0.00 | 0.00 | 48 | 1012.8 |
| 20260503050158 | 48 | 223 | 7.0 | 9.6 | 0.00 | 0.00 | 0.00 | 49 | 1012.8 |
| 20260503045657 | 48 | 210 | 6.1 | 9.6 | 0.00 | 0.00 | 0.00 | 49 | 1012.7 |
| 20260503045157 | 48 | 219 | 6.1 | 10.4 | 0.00 | 0.00 | 0.00 | 49 | 1012.8 |
| 20260503044657 | 48 | 208 | 7.0 | 11.3 | 0.00 | 0.00 | 0.00 | 49 | 1012.9 |
| 20260503044157 | 48 | 202 | 7.0 | 11.3 | 0.00 | 0.00 | 0.00 | 50 | 1012.9 |
| 20260503043657 | 47 | 225 | 6.1 | 10.4 | 0.00 | 0.00 | 0.00 | 50 | 1012.9 |
| 20260503043157 | 47 | 209 | 6.1 | 9.6 | 0.00 | 0.00 | 0.00 | 51 | 1013.0 |
| 20260503042658 | 47 | 251 | 6.1 | 9.6 | 0.00 | 0.00 | 0.00 | 52 | 1012.9 |
| 20260503042159 | 46 | 223 | 5.2 | 8.7 | 0.00 | 0.00 | 0.00 | 55 | 1013.0 |
| 20260503042155 | 46 | 200 | 5.2 | 9.6 | 0.00 | 0.00 | 0.00 | 53 | 1013.0 |
| 20260503041154 | 45 | 215 | 5.2 | 7.8 | 0.00 | 0.00 | 0.00 | 56 | 1013.3 |
| 20260503040655 | 45 | 217 | 4.3 | 7.8 | 0.00 | 0.00 | 0.00 | 59 | 1013.2 |
| 20260503040155 | 44 | 209 | 4.3 | 8.7 | 0.00 | 0.00 | 0.00 | 60 | 1013.3 |
| 20260503035654 | 44 | 196 | 3.5 | 8.7 | 0.00 | 0.00 | 0.00 | 61 | 1013.2 |
| 20260503035154 | 44 | 199 | 4.3 | 6.1 | 0.00 | 0.00 | 0.00 | 62 | 1013.4 |
| 20260503034654 | 44 | 194 | 4.3 | 7.8 | 0.00 | 0.00 | 0.00 | 62 | 1013.4 |
| 20260503034155 | 44 | 194 | 4.3 | 7.8 | 0.00 | 0.00 | 0.00 | 62 | 1013.4 |
| 20260503033655 | 44 | 208 | 4.3 | 7.0 | 0.00 | 0.00 | 0.00 | 62 | 1013.5 |
| 20260503033150 | 44 | 196 | 2.6 | 7.0 | 0.00 | 0.00 | 0.00 | 62 | 1013.4 |
| 20260503032643 | 44 | 200 | 2.6 | 5.2 | 0.00 | 0.00 | 0.00 | 62 | 1013.4 |
| 20260503032140 | 44 | 199 | 1.7 | 5.2 | 0.00 | 0.00 | 0.00 | 62 | 1013.6 |
| 20260503031640 | 44 | 210 | 1.7 | 5.2 | 0.00 | 0.00 | 0.00 | 61 | 1013.6 |
| 20260503031140 | 44 | 183 | 1.7 | 5.2 | 0.00 | 0.00 | 0.00 | 61 | 1013.6 |
| 20260503030645 | 44 | 183 | 2.6 | 5.2 | 0.00 | 0.00 | 0.00 | 61 | 1013.8 |
| 20260503030641 | 44 | 218 | 2.6 | 5.2 | 0.00 | 0.00 | 0.00 | 61 | 1013.7 |
| 20260503025645 | 44 | 168 | 2.6 | 5.2 | 0.00 | 0.00 | 0.00 | 60 | 1013.7 |
| 20260503025640 | 45 | 183 | 2.6 | 5.2 | 0.00 | 0.00 | 0.00 | 60 | 1013.9 |
| 20260503024642 | 45 | 209 | 2.6 | 7.0 | 0.00 | 0.00 | 0.00 | 59 | 1013.9 |
| 20260503024638 | 45 | 192 | 1.7 | 5.2 | 0.00 | 0.00 | 0.00 | 60 | 1013.9 |
| 20260503024136 | 45 | 192 | 1.7 | 7.0 | 0.00 | 0.00 | 0.00 | 59 | 1013.9 |
| 20260503023137 | 45 | 168 | 3.5 | 7.0 | 0.00 | 0.00 | 0.00 | 59 | 1013.9 |
| 20260503022637 | 45 | 180 | 3.5 | 6.1 | 0.00 | 0.00 | 0.00 | 58 | 1013.8 |
| 20260503022142 | 46 | 200 | 3.5 | 7.8 | 0.00 | 0.00 | 0.00 | 58 | 1013.8 |
| 20260503022137 | 46 | 185 | 3.5 | 7.8 | 0.00 | 0.00 | 0.00 | 58 | 1013.9 |
| 20260503021136 | 46 | 220 | 3.5 | 6.1 | 0.00 | 0.00 | 0.00 | 57 | 1013.9 |
| 20260503020637 | 46 | 194 | 2.6 | 7.0 | 0.00 | 0.00 | 0.00 | 57 | 1013.9 |
| 20260503020136 | 46 | 185 | 3.5 | 7.8 | 0.00 | 0.00 | 0.00 | 56 | 1013.8 |
| 20260503015636 | 47 | 240 | 3.5 | 7.8 | 0.00 | 0.00 | 0.00 | 56 | 1013.9 |
| 20260503015131 | 47 | 163 | 3.5 | 7.0 | 0.00 | 0.00 | 0.00 | 56 | 1013.8 |
| 20260503014624 | 47 | 182 | 3.5 | 8.7 | 0.00 | 0.00 | 0.00 | 55 | 1013.8 |
| 20260503014121 | 47 | 181 | 4.3 | 8.7 | 0.00 | 0.00 | 0.00 | 55 | 1013.6 |
| 20260503014114 | 47 | 200 | 3.5 | 7.0 | 0.00 | 0.00 | 0.00 | 55 | 1013.6 |
| 20260503013111 | 47 | 160 | 3.5 | 7.0 | 0.00 | 0.00 | 0.00 | 54 | 1013.8 |
| 20260503012615 | 48 | 186 | 4.3 | 8.7 | 0.00 | 0.00 | 0.00 | 53 | 1013.6 |
| 20260503012611 | 48 | 144 | 4.3 | 7.8 | 0.00 | 0.00 | 0.00 | 54 | 1013.8 |
| 20260503011610 | 48 | 167 | 5.2 | 8.7 | 0.00 | 0.00 | 0.00 | 52 | 1013.7 |
| 20260503011110 | 49 | 180 | 5.2 | 8.7 | 0.00 | 0.00 | 0.00 | 52 | 1013.8 |
| 20260503010611 | 49 | 159 | 4.3 | 8.7 | 0.00 | 0.00 | 0.00 | 51 | 1013.6 |
| 20260503010116 | 49 | 132 | 5.2 | 8.7 | 0.00 | 0.00 | 0.00 | 49 | 1013.7 |
| 20260503010110 | 49 | 150 | 5.2 | 8.7 | 0.00 | 0.00 | 0.00 | 50 | 1013.6 |
| 20260503005111 | 50 | 153 | 5.2 | 8.7 | 0.00 | 0.00 | 0.00 | 49 | 1013.7 |
| 20260503004612 | 50 | 146 | 5.2 | 9.6 | 0.00 | 0.00 | 0.00 | 48 | 1013.6 |
| 20260503004112 | 50 | 178 | 5.2 | 9.6 | 0.00 | 0.00 | 0.00 | 48 | 1013.6 |
| 20260503003612 | 50 | 142 | 6.1 | 9.6 | 0.00 | 0.00 | 0.00 | 47 | 1013.6 |
| 20260503003111 | 51 | 173 | 7.0 | 11.3 | 0.00 | 0.00 | 0.00 | 47 | 1013.8 |
| 20260503003106 | 51 | 169 | 7.0 | 11.3 | 0.00 | 0.00 | 0.00 | 47 | 1013.8 |
| 20260503002108 | 51 | 163 | 6.1 | 11.3 | 0.00 | 0.00 | 0.00 | 46 | 1013.7 |
| 20260503001606 | 51 | 142 | 7.0 | 11.3 | 0.00 | 0.00 | 0.00 | 46 | 1013.8 |
| 20260503001106 | 51 | 178 | 7.0 | 12.2 | 0.00 | 0.00 | 0.00 | 46 | 1013.8 |
| 20260503000606 | 51 | 182 | 7.0 | 12.2 | 0.00 | 0.00 | 0.00 | 45 | 1013.7 |
| 20260503000108 | 51 | 143 | 7.0 | 11.3 | 0.00 | 0.00 | 0.00 | 45 | 1013.8 |
| 20260502235607 | 51 | 119 | 7.0 | 11.3 | 0.00 | 0.00 | 0.00 | 44 | 1013.9 |
| 20260502235108 | 52 | 169 | 7.0 | 10.4 | 0.00 | 0.00 | 0.00 | 44 | 1013.8 |
| 20260502234603 | 52 | 157 | 6.1 | 10.4 | 0.00 | 0.00 | 0.00 | 44 | 1013.9 |
| 20260502234108 | 52 | 145 | 7.0 | 10.4 | 0.00 | 0.00 | 0.00 | 44 | 1013.9 |
| 20260502234104 | 52 | 159 | 6.1 | 10.4 | 0.00 | 0.00 | 0.00 | 44 | 1014.0 |
| 20260502233720 | 52 | 115 | 6.1 | 11.3 | 0.00 | 0.00 | 0.00 | 44 | 1014.1 |
| 20260502233716 | 52 | 150 | 6.1 | 11.3 | 0.00 | 0.00 | 0.00 | 44 | 1014.0 |
| 20260502232716 | 52 | 169 | 7.0 | 10.4 | 0.00 | 0.00 | 0.00 | 44 | 1014.1 |
| 20260502231604 | 53 | 144 | 7.0 | 10.4 | 0.00 | 0.00 | 0.00 | 43 | 1014.1 |
| 20260502231103 | 53 | 140 | 7.0 | 10.4 | 0.00 | 0.00 | 0.00 | 43 | 1014.2 |
| 20260502230608 | 52 | 176 | 7.8 | 12.2 | 0.00 | 0.00 | 0.00 | 43 | 1014.4 |
| 20260502230603 | 52 | 123 | 7.0 | 12.2 | 0.00 | 0.00 | 0.00 | 43 | 1014.4 |
| 20260502230214 | 53 | 134 | 7.0 | 12.2 | 0.00 | 0.00 | 0.00 | 42 | 1014.4 |
| 20260502225102 | 53 | 130 | 7.0 | 11.3 | 0.00 | 0.00 | 0.00 | 42 | 1014.6 |
| 20260502224602 | 53 | 131 | 6.1 | 10.4 | 0.00 | 0.00 | 0.00 | 42 | 1014.6 |
| 20260502224105 | 53 | 175 | 5.2 | 10.4 | 0.00 | 0.00 | 0.00 | 41 | 1014.8 |
| 20260502224100 | 53 | 148 | 6.1 | 9.6 | 0.00 | 0.00 | 0.00 | 41 | 1014.8 |
| 20260502223600 | 54 | 131 | 5.2 | 9.6 | 0.00 | 0.00 | 0.00 | 41 | 1014.8 |
| 20260502222559 | 53 | 126 | 6.1 | 10.4 | 0.00 | 0.00 | 0.00 | 41 | 1015.0 |
| 20260502222058 | 53 | 132 | 7.0 | 10.4 | 0.00 | 0.00 | 0.00 | 42 | 1014.9 |
| 20260502221600 | 53 | 105 | 7.0 | 10.4 | 0.00 | 0.00 | 0.00 | 41 | 1014.8 |
| 20260502221059 | 54 | 150 | 6.1 | 10.4 | 0.00 | 0.00 | 0.00 | 42 | 1014.9 |